Time;durP1;ratioP1;P1;durP2;ratioP2;P2;SDS_P1;SDS_P2;PMS_P1;PMS_P2;Temp;Humidity;BMP_temperature;BMP_pressure;BME280_temperature;BME280_humidity;BME280_pressure;Samples;Min_cycle;Max_cycle;Signal;HPM_P1;HPM_P2
2023/05/15 00:00:40;;;;;;;0.35;0.22;;;13.70;99.90;;;;;;5094486;28;20024;-89
2023/05/15 00:03:06;;;;;;;0.00;0.00;;;13.70;99.90;;;;;;5093426;28;20086;-89
2023/05/15 00:05:32;;;;;;;0.10;0.10;;;13.70;99.90;;;;;;5093521;28;20464;-88
2023/05/15 00:07:57;;;;;;;0.10;0.10;;;13.60;99.90;;;;;;5093266;28;20024;-89
2023/05/15 00:10:23;;;;;;;0.52;0.28;;;13.50;99.90;;;;;;5092675;28;20032;-89
2023/05/15 00:12:49;;;;;;;0.45;0.45;;;13.50;99.90;;;;;;5094156;28;20027;-89
2023/05/15 00:15:14;;;;;;;0.10;0.10;;;13.60;99.90;;;;;;5093166;28;20060;-89
2023/05/15 00:17:40;;;;;;;0.10;0.10;;;13.60;99.90;;;;;;5093015;28;20557;-90
2023/05/15 00:20:08;;;;;;;0.13;0.13;;;13.70;99.90;;;;;;5092746;28;20048;-89
2023/05/15 00:22:34;;;;;;;0.05;0.05;;;13.80;99.90;;;;;;5092878;28;20472;-88
2023/05/15 00:25:00;;;;;;;0.00;0.00;;;13.60;99.90;;;;;;5093737;28;20028;-89
2023/05/15 00:27:26;;;;;;;0.05;0.05;;;13.70;99.90;;;;;;5094199;28;20492;-89
2023/05/15 00:29:52;;;;;;;0.50;0.28;;;13.70;99.90;;;;;;5093838;28;20038;-89
2023/05/15 00:32:18;;;;;;;0.38;0.20;;;13.60;99.90;;;;;;5092800;28;20127;-89
2023/05/15 00:34:43;;;;;;;0.25;0.25;;;13.50;99.90;;;;;;5093738;28;20024;-90
2023/05/15 00:37:09;;;;;;;0.38;0.38;;;13.50;99.90;;;;;;5093534;28;20028;-89
2023/05/15 00:39:35;;;;;;;0.22;0.22;;;13.60;99.90;;;;;;5093487;28;20024;-89
2023/05/15 00:42:02;;;;;;;0.03;0.03;;;13.60;99.90;;;;;;5092509;28;20028;-90
2023/05/15 00:44:29;;;;;;;0.28;0.28;;;13.60;99.90;;;;;;5093310;28;20036;-89
2023/05/15 00:46:57;;;;;;;0.00;0.00;;;13.60;99.90;;;;;;5093627;28;20028;-88
2023/05/15 00:49:26;;;;;;;0.20;0.20;;;13.50;99.90;;;;;;5092529;28;20460;-89
2023/05/15 00:51:52;;;;;;;0.17;0.17;;;13.60;99.90;;;;;;5093374;28;20101;-89
2023/05/15 00:54:18;;;;;;;0.45;0.45;;;13.60;99.90;;;;;;5092495;28;20044;-89
2023/05/15 00:56:45;;;;;;;0.00;0.00;;;13.60;99.90;;;;;;5093256;28;20542;-89
2023/05/15 00:59:12;;;;;;;0.10;0.05;;;13.50;99.90;;;;;;5092659;28;20074;-89
2023/05/15 01:01:38;;;;;;;0.30;0.30;;;13.40;99.90;;;;;;5093626;28;20023;-89
2023/05/15 01:04:04;;;;;;;0.25;0.25;;;13.30;99.90;;;;;;5092204;28;20403;-89
2023/05/15 01:06:30;;;;;;;0.22;0.22;;;13.40;99.90;;;;;;5091755;28;20032;-89
2023/05/15 01:09:00;;;;;;;0.20;0.20;;;13.40;99.90;;;;;;5092167;28;20028;-89
2023/05/15 01:11:34;;;;;;;0.20;0.20;;;13.30;99.90;;;;;;5093280;28;20107;-89
2023/05/15 01:14:05;;;;;;;0.30;0.30;;;13.20;99.90;;;;;;5092053;28;20031;-89
2023/05/15 01:16:32;;;;;;;0.20;0.20;;;13.20;99.90;;;;;;5093563;28;20036;-89
2023/05/15 01:18:57;;;;;;;0.10;0.10;;;13.30;99.90;;;;;;5091885;28;20044;-89
2023/05/15 01:21:36;;;;;;;0.10;0.10;;;13.30;99.90;;;;;;5092735;28;20070;-89
2023/05/15 01:24:29;;;;;;;0.20;0.20;;;13.40;99.90;;;;;;5092939;28;20036;-89
2023/05/15 01:27:19;;;;;;;0.47;0.35;;;13.20;99.90;;;;;;5093294;28;20020;-89
2023/05/15 01:30:15;;;;;;;0.25;0.25;;;13.40;99.90;;;;;;5092461;28;20117;-90
2023/05/15 01:33:15;;;;;;;0.10;0.10;;;13.20;99.90;;;;;;5093051;28;20039;-89
2023/05/15 01:35:54;;;;;;;0.20;0.20;;;13.30;99.90;;;;;;5092525;28;20492;-90
2023/05/15 01:38:32;;;;;;;0.30;0.30;;;13.40;99.90;;;;;;5093053;28;20472;-90
2023/05/15 01:41:21;;;;;;;0.20;0.20;;;13.40;99.90;;;;;;5092309;28;20016;-89
2023/05/15 01:43:51;;;;;;;0.30;0.30;;;13.40;99.90;;;;;;5092980;28;20089;-89
2023/05/15 01:46:20;;;;;;;0.10;0.10;;;13.40;99.90;;;;;;5092994;28;20024;-90
2023/05/15 01:48:48;;;;;;;0.45;0.40;;;13.30;99.90;;;;;;5091779;28;20040;-89
2023/05/15 01:51:15;;;;;;;0.35;0.35;;;13.10;99.90;;;;;;5093038;28;20050;-90
2023/05/15 01:53:42;;;;;;;0.20;0.20;;;13.20;99.90;;;;;;5091808;28;20086;-89
2023/05/15 01:56:12;;;;;;;0.40;0.40;;;13.30;99.90;;;;;;5091499;28;20062;-89
2023/05/15 01:58:39;;;;;;;2.55;0.95;;;13.30;99.90;;;;;;5091386;28;20024;-89
2023/05/15 02:01:06;;;;;;;0.65;0.43;;;13.40;99.90;;;;;;5091750;28;20027;-89
2023/05/15 02:03:33;;;;;;;0.20;0.20;;;13.40;99.90;;;;;;5092779;28;20048;-89
2023/05/15 02:06:03;;;;;;;1.00;0.43;;;13.30;99.90;;;;;;5091088;28;20500;-89
2023/05/15 02:08:31;;;;;;;0.20;0.20;;;13.40;99.90;;;;;;5091587;28;20033;-89
2023/05/15 02:11:00;;;;;;;0.30;0.30;;;13.30;99.90;;;;;;5091477;28;20028;-89
2023/05/15 02:13:26;;;;;;;0.60;0.45;;;13.20;99.90;;;;;;5093795;28;20039;-89
2023/05/15 02:15:52;;;;;;;0.50;0.30;;;13.30;99.90;;;;;;5095201;28;20032;-89
2023/05/15 02:18:17;;;;;;;0.25;0.25;;;13.30;99.90;;;;;;5096134;28;20016;-89
2023/05/15 02:20:43;;;;;;;0.45;0.28;;;13.40;99.90;;;;;;5095746;28;20060;-89
2023/05/15 02:23:09;;;;;;;0.63;0.40;;;13.20;99.90;;;;;;5095418;28;20107;-90
2023/05/15 02:26:08;;;;;;;0.32;0.28;;;13.20;99.90;;;;;;5096151;28;20024;-89
2023/05/15 02:29:00;;;;;;;0.25;0.25;;;13.30;99.90;;;;;;5096086;28;20036;-89
2023/05/15 02:31:34;;;;;;;0.45;0.32;;;13.20;99.90;;;;;;5087639;28;20069;-89
2023/05/15 02:34:11;;;;;;;0.47;0.38;;;13.10;99.90;;;;;;5094686;28;20472;-90
2023/05/15 02:36:40;;;;;;;0.25;0.25;;;13.20;99.90;;;;;;5095118;28;20032;-89
2023/05/15 02:39:08;;;;;;;0.17;0.17;;;13.10;99.90;;;;;;5094800;28;20024;-90
2023/05/15 02:41:35;;;;;;;0.20;0.20;;;13.20;99.90;;;;;;5095144;28;20032;-89
2023/05/15 02:44:02;;;;;;;0.32;0.32;;;13.30;99.90;;;;;;5095323;28;20032;-89
2023/05/15 02:46:29;;;;;;;0.22;0.22;;;13.20;99.90;;;;;;5095915;28;20111;-89
2023/05/15 02:48:54;;;;;;;0.57;0.55;;;13.30;99.90;;;;;;5095668;28;20028;-90
2023/05/15 02:51:21;;;;;;;0.28;0.28;;;13.20;99.90;;;;;;5094556;28;20020;-89
2023/05/15 02:53:47;;;;;;;0.88;0.50;;;13.20;99.90;;;;;;5094656;28;20431;-89
2023/05/15 02:56:13;;;;;;;0.00;0.00;;;13.10;99.90;;;;;;5095025;28;20077;-90
2023/05/15 02:58:39;;;;;;;0.40;0.40;;;13.10;99.90;;;;;;5094575;28;20028;-89
2023/05/15 03:01:05;;;;;;;0.45;0.45;;;13.10;99.90;;;;;;5095676;28;20024;-89
2023/05/15 03:03:31;;;;;;;0.55;0.52;;;13.10;99.90;;;;;;5094415;28;20545;-90
2023/05/15 03:05:57;;;;;;;0.63;0.50;;;13.00;99.90;;;;;;5094645;28;20089;-89
2023/05/15 03:08:22;;;;;;;0.40;0.40;;;13.10;99.90;;;;;;5094244;28;20069;-89
2023/05/15 03:10:48;;;;;;;0.52;0.40;;;13.00;99.90;;;;;;5095687;28;20020;-89
2023/05/15 03:13:13;;;;;;;1.02;0.70;;;13.10;99.90;;;;;;5094443;28;20373;-90
2023/05/15 03:15:39;;;;;;;0.28;0.28;;;13.00;99.90;;;;;;5095623;28;20053;-89
2023/05/15 03:18:05;;;;;;;1.10;0.40;;;13.10;99.90;;;;;;5094731;28;20059;-89
2023/05/15 03:20:30;;;;;;;0.30;0.30;;;13.00;99.90;;;;;;5093605;28;20052;-89
2023/05/15 03:22:56;;;;;;;0.30;0.30;;;13.10;99.90;;;;;;5094392;28;20028;-89
2023/05/15 03:25:21;;;;;;;0.32;0.32;;;13.00;99.90;;;;;;5092660;28;20016;-90
2023/05/15 03:27:47;;;;;;;0.35;0.35;;;13.00;99.90;;;;;;5093992;28;20024;-90
2023/05/15 03:30:13;;;;;;;0.38;0.22;;;13.00;99.90;;;;;;5094040;28;20542;-89
2023/05/15 03:32:38;;;;;;;0.40;0.40;;;13.00;99.90;;;;;;5094967;28;20024;-90
2023/05/15 03:35:04;;;;;;;1.15;0.57;;;13.00;99.90;;;;;;5093640;28;20016;-89
2023/05/15 03:37:30;;;;;;;0.38;0.38;;;13.00;99.90;;;;;;5093895;28;20028;-89
2023/05/15 03:39:55;;;;;;;3.10;0.95;;;12.90;99.90;;;;;;5094613;28;20511;-89
2023/05/15 03:42:22;;;;;;;0.32;0.32;;;12.80;99.90;;;;;;5093688;28;20081;-90
2023/05/15 03:44:48;;;;;;;0.63;0.63;;;13.00;99.90;;;;;;5093830;28;20070;-89
2023/05/15 03:47:14;;;;;;;1.35;1.25;;;13.10;99.90;;;;;;5094160;28;20024;-90
2023/05/15 03:49:41;;;;;;;9.63;1.10;;;13.10;99.90;;;;;;5093571;28;20039;-89
2023/05/15 03:52:07;;;;;;;0.75;0.75;;;13.10;99.90;;;;;;5094979;28;20366;-89
2023/05/15 03:54:33;;;;;;;0.50;0.50;;;13.00;99.90;;;;;;5093442;28;20496;-90
2023/05/15 03:56:59;;;;;;;1.73;1.05;;;13.10;99.90;;;;;;5093373;28;20051;-89
2023/05/15 03:59:24;;;;;;;1.02;0.95;;;13.10;99.90;;;;;;5094453;28;20480;-90
2023/05/15 04:01:50;;;;;;;0.80;0.63;;;13.00;99.90;;;;;;5092811;28;20097;-90
2023/05/15 04:04:15;;;;;;;0.43;0.38;;;13.10;99.90;;;;;;5093494;28;20107;-89
2023/05/15 04:06:41;;;;;;;1.45;1.30;;;13.00;99.90;;;;;;5094413;28;20032;-89
2023/05/15 04:09:07;;;;;;;0.88;0.73;;;12.90;99.90;;;;;;5093382;28;20105;-89
2023/05/15 04:11:33;;;;;;;0.68;0.68;;;13.10;99.90;;;;;;5127195;27;20047;-89
2023/05/15 04:13:59;;;;;;;1.08;0.95;;;13.00;99.90;;;;;;5093108;28;20517;-89
2023/05/15 04:16:25;;;;;;;0.75;0.55;;;13.00;99.90;;;;;;5092744;28;20078;-89
2023/05/15 04:18:51;;;;;;;0.43;0.43;;;13.00;99.90;;;;;;5093800;28;20468;-89
2023/05/15 04:21:16;;;;;;;2.28;1.13;;;13.00;99.90;;;;;;5092935;28;20038;-89
2023/05/15 04:23:42;;;;;;;0.57;0.57;;;12.90;99.90;;;;;;5094058;28;20104;-89
2023/05/15 04:26:08;;;;;;;0.32;0.32;;;13.00;99.90;;;;;;5093838;28;20059;-90
2023/05/15 04:28:33;;;;;;;0.17;0.17;;;13.00;99.90;;;;;;5093891;28;20024;-89
2023/05/15 04:31:00;;;;;;;1.35;1.25;;;13.10;99.90;;;;;;5092869;28;20075;-89
2023/05/15 04:33:25;;;;;;;0.22;0.22;;;13.10;99.90;;;;;;5093886;28;20035;-89
2023/05/15 04:35:52;;;;;;;0.60;0.60;;;13.20;99.90;;;;;;5092293;28;20036;-89
2023/05/15 04:38:17;;;;;;;0.25;0.25;;;13.10;99.90;;;;;;5093782;28;20133;-90
2023/05/15 04:40:43;;;;;;;0.75;0.40;;;13.20;99.90;;;;;;5093526;28;20508;-89
2023/05/15 04:43:09;;;;;;;0.45;0.45;;;13.10;99.90;;;;;;5092272;28;20020;-89
2023/05/15 04:45:35;;;;;;;0.32;0.32;;;13.10;99.90;;;;;;5093418;28;20021;-89
2023/05/15 04:48:00;;;;;;;0.22;0.22;;;13.10;99.90;;;;;;5093688;28;20039;-89
2023/05/15 04:50:26;;;;;;;0.20;0.20;;;13.10;99.90;;;;;;5093658;28;20064;-88
2023/05/15 04:52:52;;;;;;;0.73;0.63;;;13.20;99.90;;;;;;5092295;28;20028;-89
2023/05/15 04:55:18;;;;;;;0.20;0.20;;;13.30;99.90;;;;;;5093870;28;20028;-89
2023/05/15 04:57:46;;;;;;;0.82;0.63;;;13.40;99.90;;;;;;5092152;28;20020;-89
2023/05/15 05:00:13;;;;;;;0.40;0.40;;;13.30;99.90;;;;;;5093009;28;20031;-89
2023/05/15 05:02:39;;;;;;;0.77;0.57;;;13.20;99.90;;;;;;5093408;28;20024;-89
2023/05/15 05:05:06;;;;;;;0.17;0.17;;;13.20;99.90;;;;;;5093351;28;20055;-90
2023/05/15 05:07:32;;;;;;;0.10;0.10;;;13.20;99.90;;;;;;5092601;28;20070;-89
2023/05/15 05:09:58;;;;;;;0.98;0.93;;;13.30;99.90;;;;;;5092150;28;20052;-89
2023/05/15 05:12:24;;;;;;;1.90;1.63;;;13.00;99.90;;;;;;5093546;28;20051;-89
2023/05/15 05:14:49;;;;;;;0.68;0.68;;;13.00;99.90;;;;;;5092190;28;20032;-89
2023/05/15 05:17:15;;;;;;;1.02;0.55;;;13.10;99.90;;;;;;5092241;28;20088;-91
2023/05/15 05:19:41;;;;;;;0.75;0.55;;;13.20;99.90;;;;;;5091843;28;20060;-89
2023/05/15 05:22:07;;;;;;;0.50;0.47;;;13.30;99.90;;;;;;5092791;28;20032;-90
2023/05/15 05:24:34;;;;;;;0.60;0.60;;;13.20;99.90;;;;;;5091870;28;20028;-90
2023/05/15 05:27:00;;;;;;;0.50;0.50;;;13.20;99.90;;;;;;5093504;28;20048;-89
2023/05/15 05:29:26;;;;;;;0.70;0.65;;;13.20;99.90;;;;;;5091412;28;20063;-91
2023/05/15 05:31:52;;;;;;;1.40;0.85;;;13.50;99.90;;;;;;5092014;28;20062;-95
2023/05/15 05:34:18;;;;;;;0.10;0.10;;;13.30;99.90;;;;;;5095704;28;20024;-90
2023/05/15 05:36:44;;;;;;;1.23;1.13;;;13.20;99.90;;;;;;5093717;28;20039;-90
2023/05/15 05:39:12;;;;;;;0.47;0.43;;;13.20;99.90;;;;;;5078302;28;20032;-90
2023/05/15 05:41:38;;;;;;;0.85;0.65;;;13.20;99.90;;;;;;5088466;28;20524;-89
2023/05/15 05:44:05;;;;;;;0.68;0.63;;;13.20;99.90;;;;;;5107821;27;20103;-90
2023/05/15 05:46:30;;;;;;;0.93;0.85;;;13.20;99.90;;;;;;5072667;28;20110;-89
2023/05/15 05:48:56;;;;;;;0.90;0.85;;;13.30;99.90;;;;;;5074844;28;20040;-90
2023/05/15 05:51:22;;;;;;;2.50;1.23;;;13.20;99.90;;;;;;5076591;28;20028;-90
2023/05/15 05:53:47;;;;;;;0.70;0.57;;;13.40;99.90;;;;;;5076947;28;20454;-88
2023/05/15 05:56:13;;;;;;;1.00;0.98;;;13.50;99.90;;;;;;5075114;28;20032;-90
2023/05/15 05:58:39;;;;;;;1.52;0.75;;;13.40;99.90;;;;;;5075571;28;20108;-89
2023/05/15 06:01:04;;;;;;;0.63;0.63;;;13.60;99.90;;;;;;5074952;28;20028;-89
2023/05/15 06:03:30;;;;;;;1.38;0.60;;;13.60;99.90;;;;;;5075345;28;20479;-90
2023/05/15 06:05:56;;;;;;;3.58;0.90;;;13.60;99.90;;;;;;5076187;28;20036;-89
2023/05/15 06:08:22;;;;;;;0.73;0.73;;;13.80;99.90;;;;;;5076225;28;20025;-90
2023/05/15 06:10:47;;;;;;;0.57;0.57;;;13.70;99.90;;;;;;5074589;28;20543;-89
2023/05/15 06:13:14;;;;;;;0.65;0.65;;;13.90;99.90;;;;;;5075402;28;20547;-89
2023/05/15 06:15:40;;;;;;;1.05;0.75;;;13.90;99.90;;;;;;5075159;28;20035;-89
2023/05/15 06:18:05;;;;;;;4.05;1.27;;;13.80;99.90;;;;;;5075067;28;20489;-89
2023/05/15 06:20:31;;;;;;;0.73;0.65;;;13.80;99.90;;;;;;5074998;28;20055;-89
2023/05/15 06:22:57;;;;;;;0.85;0.85;;;13.90;99.90;;;;;;5076370;28;20036;-89
2023/05/15 06:25:22;;;;;;;1.30;0.85;;;13.90;99.90;;;;;;5075543;28;20562;-89
2023/05/15 06:27:49;;;;;;;0.35;0.35;;;14.00;99.90;;;;;;5075894;28;20036;-89
2023/05/15 06:30:14;;;;;;;1.33;1.23;;;14.10;99.90;;;;;;5076092;28;20040;-89
2023/05/15 06:32:40;;;;;;;1.90;1.75;;;14.00;99.90;;;;;;5075562;28;20085;-89
2023/05/15 06:35:07;;;;;;;1.25;1.02;;;14.10;99.90;;;;;;5074740;28;20059;-89
2023/05/15 06:37:34;;;;;;;2.08;1.80;;;14.20;99.90;;;;;;5074084;28;20035;-89
2023/05/15 06:40:00;;;;;;;0.65;0.65;;;14.40;99.90;;;;;;5075413;28;20036;-89
2023/05/15 06:42:25;;;;;;;0.45;0.45;;;14.30;99.90;;;;;;5075672;28;20120;-87
2023/05/15 06:44:51;;;;;;;1.10;1.10;;;14.40;99.90;;;;;;5096010;28;20031;-89
2023/05/15 06:47:17;;;;;;;0.50;0.40;;;14.50;99.90;;;;;;5094899;28;20035;-89
2023/05/15 06:49:42;;;;;;;1.67;1.15;;;14.50;99.90;;;;;;5094483;28;20032;-89
2023/05/15 06:52:08;;;;;;;1.17;0.85;;;14.60;99.90;;;;;;5095649;28;20016;-89
2023/05/15 06:54:33;;;;;;;0.73;0.73;;;14.70;99.90;;;;;;5094543;28;20377;-89
2023/05/15 06:56:59;;;;;;;1.17;1.08;;;14.70;99.90;;;;;;5095542;28;20020;-89
2023/05/15 06:59:25;;;;;;;0.50;0.47;;;14.50;99.90;;;;;;5095425;28;20111;-89
2023/05/15 07:01:50;;;;;;;0.75;0.52;;;14.30;99.90;;;;;;5094352;28;20126;-90
2023/05/15 07:04:16;;;;;;;0.65;0.65;;;14.40;99.90;;;;;;5095485;28;20535;-89
2023/05/15 07:06:42;;;;;;;0.50;0.43;;;14.60;99.90;;;;;;5095617;28;20439;-89
2023/05/15 07:09:08;;;;;;;1.35;0.65;;;14.80;99.90;;;;;;5095160;28;20032;-89
2023/05/15 07:11:36;;;;;;;0.55;0.55;;;14.70;99.90;;;;;;5095630;28;20035;-89
2023/05/15 07:14:02;;;;;;;0.65;0.65;;;14.70;99.90;;;;;;5095461;28;20380;-89
2023/05/15 07:16:28;;;;;;;0.35;0.35;;;14.30;99.90;;;;;;5094057;28;20609;-89
2023/05/15 07:18:54;;;;;;;0.90;0.73;;;14.40;99.90;;;;;;5094980;28;20034;-89
2023/05/15 07:21:20;;;;;;;0.32;0.32;;;14.40;99.90;;;;;;5094027;28;20119;-89
2023/05/15 07:23:45;;;;;;;1.33;0.90;;;14.20;99.90;;;;;;5094941;28;20028;-89
2023/05/15 07:26:13;;;;;;;1.08;0.90;;;14.30;99.90;;;;;;5093841;28;20110;-89
2023/05/15 07:28:39;;;;;;;0.68;0.52;;;14.40;99.90;;;;;;5094588;28;20028;-89
2023/05/15 07:31:06;;;;;;;0.60;0.60;;;14.40;99.90;;;;;;5093831;28;20074;-89
2023/05/15 07:33:31;;;;;;;0.82;0.47;;;14.30;99.90;;;;;;5093795;28;20024;-90
2023/05/15 07:35:57;;;;;;;2.92;0.82;;;14.20;99.90;;;;;;5093761;28;20050;-89
2023/05/15 07:38:23;;;;;;;1.00;0.73;;;14.60;99.90;;;;;;5094500;28;20024;-90
2023/05/15 07:40:48;;;;;;;1.00;1.00;;;15.10;99.90;;;;;;5093617;28;20515;-89
2023/05/15 07:43:14;;;;;;;1.42;0.57;;;15.40;99.90;;;;;;5093118;28;20016;-89
2023/05/15 07:45:40;;;;;;;0.57;0.57;;;15.50;99.90;;;;;;5094715;28;20025;-89
2023/05/15 07:48:16;;;;;;;1.48;0.55;;;15.70;99.90;;;;;;5093363;28;20545;-89
2023/05/15 07:50:42;;;;;;;0.52;0.52;;;15.80;99.90;;;;;;5093335;28;20142;-89
2023/05/15 07:53:07;;;;;;;0.68;0.50;;;15.70;99.90;;;;;;5094323;28;20511;-89
2023/05/15 07:55:33;;;;;;;0.75;0.75;;;15.60;99.90;;;;;;5093314;28;20028;-89
2023/05/15 07:57:59;;;;;;;0.98;0.93;;;15.60;99.90;;;;;;5094719;28;20020;-89
2023/05/15 08:00:25;;;;;;;3.00;1.23;;;15.70;99.90;;;;;;5094220;28;20032;-89
2023/05/15 08:02:50;;;;;;;0.30;0.30;;;16.00;99.90;;;;;;5094166;28;20031;-89
2023/05/15 08:05:16;;;;;;;2.42;0.88;;;15.90;99.90;;;;;;5093115;28;20034;-89
2023/05/15 08:07:41;;;;;;;2.25;2.00;;;16.40;99.90;;;;;;5093313;28;20034;-89
2023/05/15 08:10:08;;;;;;;1.60;1.50;;;16.40;99.90;;;;;;5092501;28;20143;-89
2023/05/15 08:12:33;;;;;;;1.48;0.82;;;16.50;99.90;;;;;;5093800;28;20028;-89
2023/05/15 08:14:59;;;;;;;2.58;1.70;;;16.50;99.90;;;;;;5092850;28;20039;-89
2023/05/15 08:17:25;;;;;;;2.55;1.83;;;16.70;99.90;;;;;;5092157;28;20115;-89
2023/05/15 08:19:52;;;;;;;0.93;0.80;;;16.80;99.90;;;;;;5091571;28;20043;-85
2023/05/15 08:22:17;;;;;;;0.82;0.82;;;16.60;99.90;;;;;;5072566;28;20021;-85
2023/05/15 08:24:44;;;;;;;3.22;1.17;;;16.40;99.90;;;;;;5072604;28;20078;-85
2023/05/15 08:27:09;;;;;;;1.55;1.08;;;16.40;99.90;;;;;;5091644;28;20036;-85
2023/05/15 08:29:36;;;;;;;4.70;1.38;;;16.50;99.90;;;;;;5092655;28;20561;-85
2023/05/15 08:32:02;;;;;;;0.90;0.90;;;16.60;99.90;;;;;;5092461;28;20035;-85
2023/05/15 08:34:28;;;;;;;1.33;1.08;;;16.70;99.90;;;;;;5092868;28;20095;-89
2023/05/15 08:36:55;;;;;;;0.80;0.80;;;16.80;99.90;;;;;;5092706;28;20043;-89
2023/05/15 08:39:21;;;;;;;1.08;0.70;;;16.60;99.90;;;;;;5092374;28;20401;-85
2023/05/15 08:41:56;;;;;;;0.50;0.50;;;16.60;99.90;;;;;;5092676;28;20038;-86
2023/05/15 08:44:23;;;;;;;2.40;0.93;;;16.90;99.90;;;;;;5091794;28;20024;-85
2023/05/15 08:46:49;;;;;;;1.10;1.08;;;16.90;99.90;;;;;;5092712;28;20020;-86
2023/05/15 08:49:55;;;;;;;1.08;1.08;;;17.10;99.90;;;;;;5091002;28;20496;-85
2023/05/15 08:52:22;;;;;;;3.65;2.00;;;17.10;99.90;;;;;;5091404;28;20177;-86
2023/05/15 08:54:47;;;;;;;0.82;0.82;;;17.40;99.90;;;;;;5092004;28;20054;-85
2023/05/15 08:57:14;;;;;;;0.68;0.40;;;17.30;99.90;;;;;;5092837;28;20512;-85
2023/05/15 08:59:40;;;;;;;1.90;1.25;;;17.40;99.90;;;;;;5092003;28;20031;-86
2023/05/15 09:02:06;;;;;;;1.42;1.33;;;17.50;99.90;;;;;;5093193;28;20104;-86
2023/05/15 09:04:31;;;;;;;2.22;0.93;;;17.70;99.90;;;;;;5091906;28;20036;-85
2023/05/15 09:07:02;;;;;;;1.08;0.98;;;17.70;99.90;;;;;;5091838;28;20022;-86
2023/05/15 09:09:31;;;;;;;0.85;0.85;;;17.90;99.90;;;;;;5090570;28;20115;-86
2023/05/15 09:11:59;;;;;;;1.63;0.85;;;17.60;99.90;;;;;;5091234;28;20055;-86
2023/05/15 09:14:25;;;;;;;1.20;1.08;;;17.70;99.90;;;;;;5092648;28;20020;-86
2023/05/15 09:16:52;;;;;;;1.30;0.88;;;17.70;99.90;;;;;;5091837;28;20020;-86
2023/05/15 09:19:20;;;;;;;1.48;1.17;;;18.10;99.90;;;;;;5091344;28;20077;-85
2023/05/15 09:21:45;;;;;;;1.95;1.05;;;18.00;99.90;;;;;;5093261;28;20435;-86
2023/05/15 09:24:16;;;;;;;3.58;1.20;;;17.80;99.90;;;;;;5095997;28;20032;-86
2023/05/15 09:26:42;;;;;;;3.47;1.38;;;17.80;99.90;;;;;;5075863;28;20037;-86
2023/05/15 09:29:08;;;;;;;0.80;0.70;;;18.00;99.90;;;;;;5076789;28;20027;-86
2023/05/15 09:31:34;;;;;;;2.50;1.40;;;17.90;99.90;;;;;;5095891;28;20032;-86
2023/05/15 09:34:01;;;;;;;0.98;0.63;;;18.10;99.90;;;;;;5095835;28;20396;-86
2023/05/15 09:36:27;;;;;;;2.42;1.75;;;18.10;99.90;;;;;;5095392;28;20032;-86
2023/05/15 09:38:59;;;;;;;1.95;0.88;;;18.30;99.90;;;;;;5096079;28;20121;-86
2023/05/15 09:41:25;;;;;;;0.30;0.30;;;18.30;99.90;;;;;;5095595;28;20104;-86
2023/05/15 09:43:52;;;;;;;0.50;0.50;;;18.50;99.90;;;;;;5094636;28;20035;-86
2023/05/15 09:46:17;;;;;;;1.65;1.08;;;18.80;99.90;;;;;;5094943;28;20056;-88
2023/05/15 09:48:43;;;;;;;1.95;0.50;;;18.70;99.90;;;;;;5093898;28;20093;-87
2023/05/15 09:51:17;;;;;;;1.40;1.30;;;18.60;99.90;;;;;;5094792;28;20507;-87
2023/05/15 09:53:48;;;;;;;2.90;0.88;;;18.40;99.90;;;;;;5094294;28;20020;-86
2023/05/15 09:56:14;;;;;;;0.60;0.60;;;18.40;99.90;;;;;;5094984;28;20058;-85
2023/05/15 09:58:52;;;;;;;0.47;0.47;;;18.90;99.90;;;;;;5094722;28;20372;-85
2023/05/15 10:01:20;;;;;;;0.77;0.77;;;19.00;99.90;;;;;;5096063;28;20039;-84
2023/05/15 10:03:59;;;;;;;0.38;0.38;;;18.90;99.90;;;;;;5094589;28;20496;-85
2023/05/15 10:06:25;;;;;;;1.88;1.35;;;19.20;99.90;;;;;;5093972;28;20028;-88
2023/05/15 10:08:53;;;;;;;0.70;0.70;;;19.10;99.90;;;;;;5094616;28;20032;-89
2023/05/15 10:11:18;;;;;;;0.20;0.20;;;19.30;99.90;;;;;;5097449;28;20086;-86
2023/05/15 10:13:44;;;;;;;0.20;0.20;;;19.90;99.90;;;;;;5095900;28;20024;-93
2023/05/15 10:16:12;;;;;;;0.75;0.60;;;19.90;99.90;;;;;;5095768;28;20024;-93
2023/05/15 10:18:40;;;;;;;0.28;0.28;;;19.90;99.90;;;;;;5095860;28;20032;-95
2023/05/15 10:21:09;;;;;;;0.68;0.68;;;19.80;99.90;;;;;;5094663;28;20040;-87
2023/05/15 10:23:37;;;;;;;0.28;0.28;;;19.60;99.90;;;;;;5095131;28;20056;-94
2023/05/15 10:26:20;;;;;;;0.73;0.63;;;19.10;99.90;;;;;;5095942;28;20115;-93
2023/05/15 10:28:47;;;;;;;1.25;1.08;;;19.50;99.90;;;;;;5097026;28;20020;-94
2023/05/15 10:31:13;;;;;;;0.75;0.75;;;19.30;99.90;;;;;;5095241;28;20073;-87
2023/05/15 10:33:40;;;;;;;0.55;0.55;;;19.00;99.90;;;;;;5093902;28;20027;-91
2023/05/15 10:36:07;;;;;;;0.50;0.50;;;19.10;99.90;;;;;;5094483;28;20020;-91
2023/05/15 10:38:34;;;;;;;1.17;0.77;;;19.00;99.90;;;;;;5094936;28;20027;-93
2023/05/15 10:41:03;;;;;;;0.52;0.43;;;19.40;99.90;;;;;;5094721;28;20028;-92
2023/05/15 10:43:29;;;;;;;1.50;0.93;;;19.40;99.90;;;;;;5094350;28;20066;-86
2023/05/15 10:45:55;;;;;;;0.60;0.60;;;19.10;99.90;;;;;;5095062;28;20028;-86
2023/05/15 10:48:22;;;;;;;1.50;1.00;;;19.50;99.90;;;;;;5093628;28;20039;-86
2023/05/15 10:50:48;;;;;;;0.75;0.68;;;19.90;99.90;;;;;;5095068;28;20480;-88
2023/05/15 10:53:15;;;;;;;0.80;0.77;;;19.40;99.90;;;;;;5094519;28;20484;-91
2023/05/15 10:55:44;;;;;;;1.88;1.10;;;19.30;99.90;;;;;;5082417;28;20036;-87
2023/05/15 10:58:10;;;;;;;0.52;0.43;;;19.30;99.90;;;;;;5093253;28;20109;-87
2023/05/15 11:00:43;;;;;;;0.73;0.73;;;19.50;99.90;;;;;;5092892;28;20500;-86
2023/05/15 11:03:36;;;;;;;1.13;0.88;;;19.40;99.90;;;;;;5093091;28;20432;-88
2023/05/15 11:06:12;;;;;;;0.20;0.20;;;19.30;99.90;;;;;;5095051;28;20156;-87
2023/05/15 11:08:41;;;;;;;1.55;1.10;;;19.60;99.90;;;;;;5093387;28;20043;-87
2023/05/15 11:11:07;;;;;;;1.20;1.10;;;20.00;99.90;;;;;;5094346;28;20047;-89
2023/05/15 11:14:06;;;;;;;1.88;1.25;;;20.10;99.90;;;;;;5093839;28;20024;-93
2023/05/15 11:16:54;;;;;;;0.95;0.95;;;20.00;99.90;;;;;;5089861;28;20040;-94
2023/05/15 11:19:36;;;;;;;0.90;0.85;;;19.90;99.90;;;;;;5095137;28;20484;-94
2023/05/15 11:22:07;;;;;;;0.95;0.90;;;20.20;99.90;;;;;;5094567;28;20480;-87
2023/05/15 11:24:53;;;;;;;0.98;0.80;;;20.30;99.90;;;;;;5094091;28;20024;-90
2023/05/15 11:27:21;;;;;;;0.93;0.73;;;20.80;99.90;;;;;;5084101;28;20032;-88
2023/05/15 11:30:16;;;;;;;1.35;0.82;;;20.90;99.90;;;;;;5092945;28;20508;-85
2023/05/15 11:32:58;;;;;;;0.75;0.75;;;20.20;99.90;;;;;;5093377;28;20027;-85
2023/05/15 11:35:38;;;;;;;0.82;0.80;;;20.40;99.90;;;;;;5093903;28;20055;-84
2023/05/15 11:38:10;;;;;;;1.08;0.93;;;20.50;99.90;;;;;;5093103;28;20051;-84
2023/05/15 11:40:45;;;;;;;0.88;0.88;;;20.90;99.90;;;;;;5091913;28;20605;-85
2023/05/15 11:43:34;;;;;;;1.17;0.73;;;21.20;99.90;;;;;;5091178;28;20023;-83
2023/05/15 11:46:08;;;;;;;1.08;0.45;;;21.10;99.90;;;;;;5084446;28;20028;-84
2023/05/15 11:48:46;;;;;;;0.40;0.40;;;21.70;99.90;;;;;;5093927;28;20493;-85
2023/05/15 11:51:15;;;;;;;1.73;0.77;;;21.80;99.90;;;;;;5093413;28;20032;-84
2023/05/15 11:53:41;;;;;;;0.65;0.57;;;22.20;99.90;;;;;;5094007;28;20039;-84
2023/05/15 11:56:16;;;;;;;1.77;1.00;;;22.40;99.90;;;;;;5093448;28;20048;-84
2023/05/15 11:58:42;;;;;;;0.65;0.60;;;22.50;99.90;;;;;;5093107;28;20111;-84
2023/05/15 12:01:09;;;;;;;1.35;1.05;;;22.40;99.90;;;;;;5093373;28;20104;-84
2023/05/15 12:03:35;;;;;;;1.00;0.73;;;21.80;99.90;;;;;;5093796;28;20479;-84
2023/05/15 12:06:02;;;;;;;1.35;0.38;;;21.60;99.90;;;;;;5093359;28;20267;-84
2023/05/15 12:08:32;;;;;;;0.90;0.60;;;21.30;99.90;;;;;;5092945;28;20020;-84
2023/05/15 12:10:59;;;;;;;0.32;0.32;;;21.20;99.90;;;;;;5093311;28;20046;-84
2023/05/15 12:13:25;;;;;;;2.33;0.82;;;21.90;99.90;;;;;;5093058;28;20024;-84
2023/05/15 12:15:51;;;;;;;2.47;1.15;;;21.90;99.90;;;;;;5093155;28;20078;-84
2023/05/15 12:18:16;;;;;;;1.02;0.55;;;22.40;99.90;;;;;;5093170;28;20392;-84
2023/05/15 12:20:45;;;;;;;1.70;0.95;;;22.30;99.90;;;;;;5092924;28;20535;-84
2023/05/15 12:23:14;;;;;;;0.35;0.35;;;22.20;99.90;;;;;;5092912;28;20023;-84
2023/05/15 12:25:42;;;;;;;0.70;0.70;;;22.40;99.90;;;;;;5092964;28;20066;-84
2023/05/15 12:28:08;;;;;;;1.63;1.52;;;22.10;99.90;;;;;;5092353;28;20545;-84
2023/05/15 12:30:34;;;;;;;0.88;0.88;;;21.80;99.90;;;;;;5092654;28;20131;-84
2023/05/15 12:33:02;;;;;;;1.10;1.00;;;22.30;99.90;;;;;;5093263;28;20095;-83
2023/05/15 12:35:28;;;;;;;1.20;1.02;;;21.90;99.90;;;;;;5092875;28;20388;-83
2023/05/15 12:37:54;;;;;;;1.92;1.08;;;21.70;99.90;;;;;;5092613;28;20024;-84
2023/05/15 12:40:22;;;;;;;2.05;1.30;;;22.00;99.90;;;;;;5092814;28;20444;-84
2023/05/15 12:42:55;;;;;;;0.57;0.57;;;22.30;99.90;;;;;;5091975;28;20024;-84
2023/05/15 12:45:22;;;;;;;0.82;0.82;;;22.50;99.90;;;;;;5092864;28;20115;-84
2023/05/15 12:47:49;;;;;;;0.70;0.70;;;22.80;99.90;;;;;;5092431;28;20476;-84
2023/05/15 12:50:20;;;;;;;0.90;0.82;;;22.70;99.90;;;;;;5092310;28;20036;-83
2023/05/15 12:52:57;;;;;;;0.45;0.40;;;23.50;99.90;;;;;;5092486;28;20024;-84